Terminal Aerodrome Forecast
Issued by NWS Louisville, KY

Home | Current Version | Previous Version | Text Only | Print | Product List | Glossary On
Versions: 1 2 3 4 5 6 7 8 9 10 11 12 13 14 15 16 17 18 19 20
000
FTUS43 KLMK 261100
TAFLEX
TAF
KLEX 261139Z 2612/2712 33015G20KT P6SM OVC014
     FM261700 31010KT P6SM BKN019
     FM262000 31008KT P6SM BKN025 BKN050
     FM262300 VRB04KT P6SM SCT025 BKN050
     FM270800 VRB04KT 6SM -SN BKN035=

USA.gov is the U.S. government's official web portal to all federal, state and local government web resources and services.